Map

Track Data

SID SEASON NUMBER BASIN SUBBASIN NAME ISO_TIME NATURE LAT LON WMO_WIND WMO_PRES WMO_AGENCY TRACK_TYPE DIST2LAND LANDFALL IFLAG USA_AGENCY USA_ATCF_ID USA_LAT USA_LON USA_RECORD USA_STATUS USA_WIND USA_PRES USA_SSHS USA_R34_NE USA_R34_SE USA_R34_SW USA_R34_NW USA_R50_NE USA_R50_SE USA_R50_SW USA_R50_NW USA_R64_NE USA_R64_SE USA_R64_SW USA_R64_NW USA_POCI USA_ROCI USA_RMW USA_EYE TOKYO_LAT TOKYO_LON TOKYO_GRADE TOKYO_WIND TOKYO_PRES TOKYO_R50_DIR TOKYO_R50_LONG TOKYO_R50_SHORT TOKYO_R30_DIR TOKYO_R30_LONG TOKYO_R30_SHORT TOKYO_LAND CMA_LAT CMA_LON CMA_CAT CMA_WIND CMA_PRES HKO_LAT HKO_LON HKO_CAT HKO_WIND HKO_PRES NEWDELHI_LAT NEWDELHI_LON NEWDELHI_GRADE NEWDELHI_WIND NEWDELHI_PRES NEWDELHI_CI NEWDELHI_DP NEWDELHI_POCI REUNION_LAT REUNION_LON REUNION_TYPE REUNION_WIND REUNION_PRES REUNION_TNUM REUNION_CI REUNION_RMW REUNION_R34_NE REUNION_R34_SE REUNION_R34_SW REUNION_R34_NW REUNION_R50_NE REUNION_R50_SE REUNION_R50_SW REUNION_R50_NW REUNION_R64_NE REUNION_R64_SE REUNION_R64_SW REUNION_R64_NW BOM_LAT BOM_LON BOM_TYPE BOM_WIND BOM_PRES BOM_TNUM BOM_CI BOM_RMW BOM_R34_NE BOM_R34_SE BOM_R34_SW BOM_R34_NW BOM_R50_NE BOM_R50_SE BOM_R50_SW BOM_R50_NW BOM_R64_NE BOM_R64_SE BOM_R64_SW BOM_R64_NW BOM_ROCI BOM_POCI BOM_EYE BOM_POS_METHOD BOM_PRES_METHOD NADI_LAT NADI_LON NADI_CAT NADI_WIND NADI_PRES WELLINGTON_LAT WELLINGTON_LON WELLINGTON_WIND WELLINGTON_PRES DS824_LAT DS824_LON DS824_STAGE DS824_WIND DS824_PRES TD9636_LAT TD9636_LON TD9636_STAGE TD9636_WIND TD9636_PRES TD9635_LAT TD9635_LON TD9635_WIND TD9635_PRES TD9635_ROCI NEUMANN_LAT NEUMANN_LON NEUMANN_CLASS NEUMANN_WIND NEUMANN_PRES MLC_LAT MLC_LON MLC_CLASS MLC_WIND MLC_PRES USA_GUST BOM_GUST BOM_GUST_PER REUNION_GUST REUNION_GUST_PER USA_SEAHGT USA_SEARAD_NE USA_SEARAD_SE USA_SEARAD_SW USA_SEARAD_NW STORM_SPEED STORM_DIR
1947354N09086 1947 100 NI BB NOT_NAMED 1947-12-19 18:00:00 TS 8.50000 86.1000 main 484 459 O________O____ jtwc_io IO171947 8.50000 86.1000 -1 8.50000 86.1000 TC 23 331
1947354N09086 1947 100 NI BB NOT_NAMED 1947-12-19 21:00:00 TS 9.48527 85.5583 main 469 453 P________P____ IO171947 9.48527 85.5583 -1 9.48527 85.5583 TC 21 331
1947354N09086 1947 100 NI BB NOT_NAMED 1947-12-20 00:00:00 TS 10.3000 85.1000 main 458 453 O________O____ jtwc_io IO171947 10.3000 85.1000 -1 10.3000 85.1000 TC 25 16 331
1947354N09086 1947 100 NI BB NOT_NAMED 1947-12-20 03:00:00 TS 10.8288 84.7908 main 459 456 P________PO___ IO171947 10.8324 84.7897 -1 10.8324 84.7897 TC 25 10.8000 84.8000 1 10 332
1947354N09086 1947 100 NI BB NOT_NAMED 1947-12-20 06:00:00 TS 11.1941 84.6138 main 466 466 O________OP___ jtwc_io IO171947 11.2000 84.6000 -1 11.2000 84.6000 TC 25 11.1703 84.6688 1 8 339
1947354N09086 1947 100 NI BB NOT_NAMED 1947-12-20 09:00:00 TS 11.5534 84.5026 main 478 461 P________PP___ IO171947 11.5574 84.4923 -1 11.5574 84.4923 TC 25 11.5425 84.5300 1 7 343
1947354N09086 1947 100 NI BB NOT_NAMED 1947-12-20 12:00:00 TS 11.9061 84.3921 main 461 435 O________OP___ jtwc_io IO171947 11.9000 84.4000 -1 11.9000 84.4000 TC 25 11.9184 84.3762 1 8 339
1947354N09086 1947 100 NI BB NOT_NAMED 1947-12-20 15:00:00 TS 12.3000 84.2100 main 435 406 P________PO___ IO171947 12.3000 84.2150 -1 12.3000 84.2150 TC 25 12.3000 84.2000 1 9 334
1947354N09086 1947 100 NI BB NOT_NAMED 1947-12-20 18:00:00 TS 12.6958 83.9994 main 406 380 O________OP___ jtwc_io IO171947 12.7000 84.0000 -1 12.7000 84.0000 TC 25 12.6872 83.9983 1 9 332
1947354N09086 1947 100 NI BB NOT_NAMED 1947-12-20 21:00:00 TS 13.0625 83.7901 main 379 357 P________PP___ IO171947 13.0575 83.7925 -1 13.0575 83.7925 TC 25 13.0726 83.7853 1 8 331
1947354N09086 1947 100 NI BB NOT_NAMED 1947-12-21 00:00:00 TS 13.4155 83.5932 main 357 332 O________OP___ jtwc_io IO171947 13.4000 83.6000 -1 13.4000 83.6000 TC 25 13.4466 83.5796 1 8 333
1947354N09086 1947 100 NI BB NOT_NAMED 1947-12-21 03:00:00 TS 13.7717 83.4233 main 332 297 P________PO___ IO171947 13.7575 83.4350 -1 13.7575 83.4350 TC 25 13.8000 83.4000 1 8 337
1947354N09086 1947 100 NI BB NOT_NAMED 1947-12-21 06:00:00 TS 14.1099 83.2917 main 297 262 O________OP___ jtwc_io IO171947 14.1000 83.3000 -1 14.1000 83.3000 TC 25 14.1296 83.2750 1 7 341
1947354N09086 1947 100 NI BB NOT_NAMED 1947-12-21 09:00:00 TS 14.4174 83.1873 main 262 228 P________PP___ IO171947 14.4075 83.1924 -1 14.4075 83.1924 TC 25 14.4373 83.1771 1 6 342
1947354N09086 1947 100 NI BB NOT_NAMED 1947-12-21 12:00:00 TS 14.7088 83.0969 main 228 193 O________OP___ jtwc_io IO171947 14.7000 83.1000 -1 14.7000 83.1000 TC 25 14.7265 83.0907 1 6 343
1947354N09086 1947 100 NI BB NOT_NAMED 1947-12-21 15:00:00 TS 15.0050 83.0050 main 193 159 P________PO___ IO171947 15.0075 83.0075 -1 15.0075 83.0075 TC 25 15.0000 83.0000 1 6 341
1947354N09086 1947 100 NI BB NOT_NAMED 1947-12-21 18:00:00 TS 15.2844 82.8971 main 159 134 O________OP___ jtwc_io IO171947 15.3000 82.9000 -1 15.3000 82.9000 TC 25 15.2610 82.8928 1 6 337
1947354N09086 1947 100 NI BB NOT_NAMED 1947-12-21 21:00:00 TS 15.5397 82.7645 main 134 94 P________PP___ IO171947 15.5600 82.7601 -1 15.5600 82.7601 TC 25 15.5126 82.7704 1 6 332
1947354N09086 1947 100 NI BB NOT_NAMED 1947-12-22 00:00:00 TS 15.7790 82.6189 main 94 70 O________OP___ jtwc_io IO171947 15.8000 82.6000 -1 15.8000 82.6000 TC 25 15.7579 82.6378 1 5 331
1947354N09086 1947 100 NI BB NOT_NAMED 1947-12-22 03:00:00 NR 16.0000 82.5000 main 70 __________O___ IO171947 -1 TC 16.0000 82.5000 1 5 333

About IBTrACS Database

This database is a web-friendly format of International Best Track Archive for Climate Stewardship (IBTrACS), a global best track data archive curated by NOAA dating back to 1842.

Updated: 2021-12-01